Propane Maru No.18 — JL6540 — position and weather

sailwx.info

Track history (hours):
 
Tides and Currents Weather Stations Pressure Air Temp Water Temp Dewpoint Dewpoint Depression Visibility Wind Speed Wind Dir Waves Ship Positions

Propane Maru No.18

Last reported at 2017-Oct-16 16:48 UTC. Time now 2017-Oct-19 01:31 UTC.
Position N 34°44' E 139°11'.

Length 63 m; draft 4 m.

Type: Tanker. MMSI: 431501275.

Date/timePositionNaut miles runAvg speedWind from/ knotsBaromVisibWave heightAir tempDewpointWater temp
2017-Oct-16 16:48N 34°44' E 139°11'3 9.7
2017-Oct-16 16:29N 34°46' E 139°13'25 9.7
2017-Oct-16 13:57N 34°51' E 139°43'510.7
2017-Oct-16 13:31N 34°52' E 139°49'911.0
2017-Oct-16 12:41N 34°54' E 139°59'6 0.3
2017-Oct-15 13:59N 34°51' E 139°53'510.5
2017-Oct-15 13:30N 34°50' E 139°47'712.1
2017-Oct-15 12:56N 34°51' E 139°39'26 0.6
2017-Oct-13 17:03N 34°46' E 139°08'112.1
2017-Oct-13 17:00N 34°47' E 139°09'611.8
2017-Oct-13 16:29N 34°52' E 139°13'1810.4
2017-Oct-13 14:43N 35°02' E 139°31'210.4
2017-Oct-13 14:30N 35°03' E 139°33'510.9
2017-Oct-13 14:00N 35°06' E 139°39'611.3
2017-Oct-13 13:30N 35°10' E 139°44'611.7
2017-Oct-13 13:01N 35°15' E 139°46'611.5
2017-Oct-13 12:30N 35°20' E 139°42'611.2
2017-Oct-13 12:00N 35°26' E 139°44'5 9.7
2017-Oct-13 11:29N 35°30' E 139°47'1 1.4
2017-Oct-13 10:40N 35°31' E 139°46'0 0.0
2017-Oct-13 10:30N 35°31' E 139°46'0 0.0
2017-Oct-13 09:53N 35°31' E 139°46'0 0.0
2017-Oct-13 09:30N 35°31' E 139°46'0 0.0
2017-Oct-13 08:37N 35°31' E 139°46'0 0.0
2017-Oct-13 07:23N 35°31' E 139°46'0 0.0
2017-Oct-13 06:54N 35°31' E 139°46'0 0.0
2017-Oct-13 05:58N 35°31' E 139°46'2 4.9
2017-Oct-13 05:31N 35°30' E 139°48'1 0.7
2017-Oct-13 03:49N 35°29' E 139°49'0 0.2
2017-Oct-13 03:30N 35°29' E 139°49'5 9.3
2017-Oct-13 03:00N 35°25' E 139°47'510.9
2017-Oct-13 02:31N 35°20' E 139°44'510.7
2017-Oct-13 02:00N 35°15' E 139°47'611.1
2017-Oct-13 01:30N 35°09' E 139°46'611.4
2017-Oct-13 01:00N 35°04' E 139°44'611.7
2017-Oct-13 00:30N 35°00' E 139°38'  
2017-Oct-10 18:17N 34°51' E 139°46'1210.9
2017-Oct-10 17:13N 34°53' E 139°60'15 0.6
2017-Oct-09 15:09N 34°50' E 139°43'411.9
2017-Oct-09 14:49N 34°50' E 139°38'  
Track history (hours):
 
Tides and Currents Weather Stations Pressure Air Temp Water Temp Dewpoint Dewpoint Depression Visibility Wind Speed Wind Dir Waves Ship Positions

Propane Maru No.18

Last reported at 2017-Oct-16 16:48 UTC. Time now 2017-Oct-19 01:31 UTC.
Position N 34°44' E 139°11'.

Length 63 m; draft 4 m.

Type: Tanker. MMSI: 431501275.

Date/timePositionNaut miles runAvg speedWind from/ knotsBaromVisibWave heightAir tempDewpointWater temp
2017-Oct-16 16:48N 34°44' E 139°11'3 9.7
2017-Oct-16 16:29N 34°46' E 139°13'25 9.7
2017-Oct-16 13:57N 34°51' E 139°43'510.7
2017-Oct-16 13:31N 34°52' E 139°49'911.0
2017-Oct-16 12:41N 34°54' E 139°59'6 0.3
2017-Oct-15 13:59N 34°51' E 139°53'510.5
2017-Oct-15 13:30N 34°50' E 139°47'712.1
2017-Oct-15 12:56N 34°51' E 139°39'26 0.6
2017-Oct-13 17:03N 34°46' E 139°08'112.1
2017-Oct-13 17:00N 34°47' E 139°09'611.8
2017-Oct-13 16:29N 34°52' E 139°13'1810.4
2017-Oct-13 14:43N 35°02' E 139°31'210.4
2017-Oct-13 14:30N 35°03' E 139°33'510.9
2017-Oct-13 14:00N 35°06' E 139°39'611.3
2017-Oct-13 13:30N 35°10' E 139°44'611.7
2017-Oct-13 13:01N 35°15' E 139°46'611.5
2017-Oct-13 12:30N 35°20' E 139°42'611.2
2017-Oct-13 12:00N 35°26' E 139°44'5 9.7
2017-Oct-13 11:29N 35°30' E 139°47'1 1.4
2017-Oct-13 10:40N 35°31' E 139°46'0 0.0
2017-Oct-13 10:30N 35°31' E 139°46'0 0.0
2017-Oct-13 09:53N 35°31' E 139°46'0 0.0
2017-Oct-13 09:30N 35°31' E 139°46'0 0.0
2017-Oct-13 08:37N 35°31' E 139°46'0 0.0
2017-Oct-13 07:23N 35°31' E 139°46'0 0.0
2017-Oct-13 06:54N 35°31' E 139°46'0 0.0
2017-Oct-13 05:58N 35°31' E 139°46'2 4.9
2017-Oct-13 05:31N 35°30' E 139°48'1 0.7
2017-Oct-13 03:49N 35°29' E 139°49'0 0.2
2017-Oct-13 03:30N 35°29' E 139°49'5 9.3
2017-Oct-13 03:00N 35°25' E 139°47'510.9
2017-Oct-13 02:31N 35°20' E 139°44'510.7
2017-Oct-13 02:00N 35°15' E 139°47'611.1
2017-Oct-13 01:30N 35°09' E 139°46'611.4
2017-Oct-13 01:00N 35°04' E 139°44'611.7
2017-Oct-13 00:30N 35°00' E 139°38'  
2017-Oct-10 18:17N 34°51' E 139°46'1210.9
2017-Oct-10 17:13N 34°53' E 139°60'15 0.6
2017-Oct-09 15:09N 34°50' E 139°43'411.9
2017-Oct-09 14:49N 34°50' E 139°38'  

Dump ship's entire track history